createdAt,value
2019-01-29T04:17:26.558Z,99.90
2019-01-29T04:19:55.731Z,99.90
2019-01-29T04:22:24.916Z,99.90
2019-01-29T04:24:54.038Z,99.90
2019-01-29T04:27:23.043Z,99.90
2019-01-29T04:29:52.127Z,99.90
2019-01-29T04:32:21.395Z,99.90
2019-01-29T04:34:50.318Z,99.90
2019-01-29T04:37:19.307Z,99.90
2019-01-29T04:39:48.383Z,99.90
2019-01-29T04:42:17.605Z,99.90
2019-01-29T04:44:46.721Z,99.90
2019-01-29T04:47:15.730Z,99.90
2019-01-29T04:49:44.806Z,99.90
2019-01-29T04:52:13.878Z,99.90
2019-01-29T04:54:42.811Z,99.90
2019-01-29T04:57:11.870Z,99.90
2019-01-29T04:59:40.895Z,99.90
2019-01-29T05:02:09.984Z,99.90
2019-01-29T05:04:39.057Z,99.90
2019-01-29T05:07:08.084Z,99.90
2019-01-29T05:09:39.197Z,99.90
2019-01-29T05:12:08.373Z,99.90
2019-01-29T05:14:37.450Z,99.90
2019-01-29T05:17:06.692Z,99.90
2019-01-29T05:19:35.755Z,99.90
2019-01-29T05:22:04.831Z,99.90
2019-01-29T05:24:33.939Z,99.90
2019-01-29T05:27:03.022Z,99.90
2019-01-29T05:29:32.074Z,99.90
2019-01-29T05:32:01.100Z,99.90
2019-01-29T05:34:30.112Z,99.90
2019-01-29T05:36:59.207Z,99.90
2019-01-29T05:39:29.017Z,99.90
2019-01-29T05:41:58.146Z,99.90
2019-01-29T05:44:27.172Z,99.90
2019-01-29T05:46:56.159Z,99.90
2019-01-29T05:49:25.279Z,99.90
2019-01-29T05:51:54.349Z,99.90
2019-01-29T05:54:23.582Z,99.90
2019-01-29T05:56:52.802Z,99.90
2019-01-29T05:59:21.728Z,99.90
2019-01-29T06:01:50.917Z,99.90
2019-01-29T06:04:20.125Z,99.90
2019-01-29T06:06:49.173Z,99.90
2019-01-29T06:09:18.182Z,99.90
2019-01-29T06:11:47.158Z,99.90
2019-01-29T06:14:16.108Z,99.90
2019-01-29T06:16:45.123Z,99.90
2019-01-29T06:19:14.327Z,99.90
2019-01-29T06:21:43.343Z,99.90
2019-01-29T06:24:12.473Z,99.90
2019-01-29T06:26:41.531Z,99.90
2019-01-29T06:29:10.571Z,99.90
2019-01-29T06:31:40.002Z,99.90
2019-01-29T06:34:09.309Z,99.90
2019-01-29T06:36:38.385Z,99.90
2019-01-29T06:39:08.204Z,99.90
2019-01-29T06:41:37.256Z,99.90
2019-01-29T06:44:06.667Z,99.90
2019-01-29T06:46:35.769Z,99.90
2019-01-29T06:49:04.938Z,99.90
2019-01-29T06:51:33.926Z,99.90
2019-01-29T06:54:03.265Z,99.90
2019-01-29T06:56:32.419Z,99.90
2019-01-29T06:59:01.599Z,99.90
2019-01-29T07:01:30.554Z,99.90
2019-01-29T07:03:59.560Z,99.90
2019-01-29T07:06:28.642Z,99.90
2019-01-29T07:08:57.727Z,99.90
2019-01-29T07:11:26.839Z,99.90
2019-01-29T07:16:39.338Z,99.90
2019-01-29T07:19:14.153Z,99.90
2019-01-29T07:21:43.219Z,99.90
2019-01-29T07:24:12.294Z,99.90
2019-01-29T07:26:41.220Z,99.90
2019-01-29T07:29:10.266Z,99.90
2019-01-29T07:31:39.302Z,99.90
2019-01-29T07:34:08.281Z,99.90
2019-01-29T07:36:37.283Z,99.90
2019-01-29T07:39:10.035Z,99.90
2019-01-29T07:41:39.114Z,99.90
2019-01-29T07:44:08.283Z,99.90
2019-01-29T07:46:37.350Z,99.90
2019-01-29T07:49:06.475Z,99.90
2019-01-29T07:51:35.554Z,99.90
2019-01-29T07:54:04.927Z,99.90
2019-01-29T07:56:35.821Z,99.90
2019-01-29T07:59:05.045Z,99.90
2019-01-29T08:01:34.094Z,99.90
2019-01-29T08:04:03.247Z,99.90
2019-01-29T08:06:32.395Z,99.90
2019-01-29T08:09:01.526Z,99.90
2019-01-29T08:11:30.513Z,99.90
2019-01-29T08:13:59.563Z,99.90
2019-01-29T08:16:28.518Z,99.90
2019-01-29T08:18:57.515Z,99.90
2019-01-29T08:21:26.549Z,99.90
2019-01-29T08:23:55.497Z,99.90
2019-01-29T08:26:24.630Z,99.90
2019-01-29T08:28:53.706Z,99.90
2019-01-29T08:31:22.742Z,99.90
2019-01-29T08:33:51.683Z,99.90
2019-01-29T08:36:20.833Z,99.90
2019-01-29T08:38:49.847Z,99.90
2019-01-29T08:41:18.754Z,99.90
2019-01-29T08:43:47.934Z,99.90
2019-01-29T08:46:17.024Z,99.90
2019-01-29T08:48:46.041Z,99.90
2019-01-29T08:51:15.096Z,99.90
2019-01-29T08:53:44.325Z,99.90
2019-01-29T08:56:13.415Z,99.90
2019-01-29T08:58:42.511Z,99.90
2019-01-29T09:01:11.607Z,99.90
2019-01-29T09:03:40.655Z,99.90
2019-01-29T09:06:09.804Z,99.90
2019-01-29T09:08:38.908Z,99.90
2019-01-29T09:11:08.040Z,99.90
2019-01-29T09:13:37.033Z,99.90
2019-01-29T09:16:06.171Z,99.90
2019-01-29T09:18:35.231Z,99.90
2019-01-29T09:21:04.294Z,99.90
2019-01-29T09:23:33.422Z,99.90
2019-01-29T09:26:02.402Z,99.90
2019-01-29T09:28:31.319Z,99.90
2019-01-29T09:31:00.432Z,99.90
2019-01-29T09:33:29.541Z,99.90
2019-01-29T09:35:58.585Z,99.90
2019-01-29T09:38:27.782Z,99.90
2019-01-29T09:40:56.850Z,99.90
2019-01-29T09:43:25.906Z,99.90
2019-01-29T09:45:55.024Z,99.90
2019-01-29T09:48:23.997Z,99.90
2019-01-29T09:50:53.686Z,99.90
2019-01-29T09:53:22.862Z,99.90
2019-01-29T09:55:51.964Z,99.90
2019-01-29T09:58:20.980Z,99.90
2019-01-29T10:00:50.073Z,99.90
2019-01-29T10:03:19.182Z,99.90
2019-01-29T10:05:48.248Z,99.90
2019-01-29T10:08:17.664Z,99.80
2019-01-29T10:10:46.852Z,97.90
2019-01-29T10:13:16.079Z,97.90
2019-01-29T10:15:45.166Z,96.30
2019-01-29T10:18:14.340Z,95.50
2019-01-29T10:20:43.438Z,93.20
2019-01-29T10:23:12.507Z,93.90
2019-01-29T10:25:41.579Z,94.70
2019-01-29T10:28:10.729Z,94.40
2019-01-29T10:30:39.819Z,92.90
2019-01-29T10:33:08.900Z,92.20
2019-01-29T10:35:37.954Z,92.80
2019-01-29T10:38:07.073Z,91.90
2019-01-29T10:40:36.129Z,91.00
2019-01-29T10:43:06.677Z,90.70
2019-01-29T10:45:35.786Z,91.70
2019-01-29T10:48:05.107Z,94.10
2019-01-29T10:50:34.312Z,96.00
2019-01-29T10:53:03.323Z,96.80
2019-01-29T10:55:32.393Z,96.30
2019-01-29T10:58:01.459Z,95.40
2019-01-29T11:00:36.881Z,94.80
2019-01-29T11:03:06.566Z,95.00
2019-01-29T11:05:38.156Z,95.70
2019-01-29T11:08:07.289Z,96.00
2019-01-29T11:10:36.413Z,96.30
2019-01-29T11:13:07.310Z,97.00
2019-01-29T11:15:38.550Z,97.70
2019-01-29T11:18:10.421Z,98.20
2019-01-29T11:20:39.495Z,98.90
2019-01-29T11:23:08.702Z,99.90
2019-01-29T11:25:37.891Z,99.90
2019-01-29T11:28:07.063Z,99.90
2019-01-29T11:30:36.407Z,99.90
2019-01-29T11:33:06.042Z,99.90
2019-01-29T11:35:35.049Z,99.90
2019-01-29T11:38:05.053Z,99.90
2019-01-29T11:40:34.237Z,99.80
2019-01-29T11:43:03.476Z,99.40
2019-01-29T11:45:41.256Z,99.00
2019-01-29T11:48:10.384Z,98.50
2019-01-29T11:50:39.460Z,98.90
2019-01-29T11:53:08.618Z,99.90
2019-01-29T11:55:37.675Z,99.90
2019-01-29T11:58:06.759Z,99.90
2019-01-29T12:00:39.182Z,99.90
2019-01-29T12:03:08.238Z,99.90
2019-01-29T12:05:37.380Z,99.90
2019-01-29T12:08:06.680Z,99.90
2019-01-29T12:10:35.803Z,99.30
2019-01-29T12:13:05.579Z,99.60
2019-01-29T12:15:34.662Z,99.90
2019-01-29T12:18:04.036Z,99.30
2019-01-29T12:20:33.330Z,99.30
2019-01-29T12:23:02.447Z,99.20
2019-01-29T12:25:31.517Z,99.10
2019-01-29T12:28:00.550Z,98.90
2019-01-29T12:30:30.122Z,98.80
2019-01-29T12:32:59.867Z,99.20
2019-01-29T12:35:28.941Z,96.70
2019-01-29T12:37:58.015Z,96.70
2019-01-29T12:40:27.010Z,97.30
2019-01-29T12:42:56.056Z,98.10
2019-01-29T12:45:25.705Z,98.80
2019-01-29T12:47:55.036Z,97.80
2019-01-29T12:50:24.294Z,97.30
2019-01-29T12:53:03.878Z,97.50
2019-01-29T12:55:33.174Z,97.10
2019-01-29T12:58:02.231Z,97.60
2019-01-29T13:00:44.280Z,97.80
2019-01-29T13:03:13.405Z,98.70
2019-01-29T13:05:42.482Z,99.10
2019-01-29T13:08:11.665Z,98.90
2019-01-29T13:10:40.802Z,98.60
2019-01-29T13:13:09.941Z,97.40
2019-01-29T13:15:39.286Z,97.30
2019-01-29T13:18:08.375Z,94.70
2019-01-29T13:20:37.710Z,94.70
2019-01-29T13:23:06.887Z,95.30
2019-01-29T13:25:35.816Z,95.10
2019-01-29T13:28:05.223Z,94.00
2019-01-29T13:30:35.870Z,93.20
2019-01-29T13:33:09.359Z,93.80
2019-01-29T13:35:38.917Z,94.10
2019-01-29T13:38:08.607Z,93.50
2019-01-29T13:40:37.896Z,93.60
2019-01-29T13:43:07.592Z,93.30
2019-01-29T13:45:38.854Z,92.70
2019-01-29T13:48:07.973Z,92.80
2019-01-29T13:50:43.178Z,92.30
2019-01-29T13:53:12.223Z,92.30
2019-01-29T13:55:41.463Z,92.00
2019-01-29T13:58:10.810Z,89.60
2019-01-29T14:00:40.115Z,87.30
2019-01-29T14:03:10.060Z,90.40
2019-01-29T14:05:39.195Z,99.40
2019-01-29T14:08:08.745Z,99.90
2019-01-29T14:10:38.049Z,99.90
2019-01-29T14:13:07.330Z,99.90
2019-01-29T14:15:48.727Z,99.90
2019-01-29T14:18:18.869Z,99.90
2019-01-29T14:20:48.198Z,99.90
2019-01-29T14:23:17.474Z,99.90
2019-01-29T14:25:46.658Z,99.90
2019-01-29T14:28:16.239Z,99.90
2019-01-29T14:30:45.428Z,99.90
2019-01-29T14:33:14.535Z,99.90
2019-01-29T14:35:43.595Z,99.90
2019-01-29T14:38:50.966Z,99.90
2019-01-29T14:41:21.475Z,99.90
2019-01-29T14:43:55.931Z,99.90
2019-01-29T14:46:25.134Z,99.90
2019-01-29T14:48:54.229Z,99.90
2019-01-29T14:51:23.631Z,99.90
2019-01-29T14:53:52.797Z,99.90
2019-01-29T14:56:21.903Z,99.90
2019-01-29T14:58:51.049Z,99.90
2019-01-29T15:01:20.391Z,99.90
2019-01-29T15:03:49.383Z,99.90
2019-01-29T15:06:18.743Z,99.90
2019-01-29T15:08:47.727Z,99.90
2019-01-29T15:11:16.859Z,99.90
2019-01-29T15:13:45.897Z,99.90
2019-01-29T15:16:28.083Z,99.90
2019-01-29T15:19:02.128Z,99.90
2019-01-29T15:21:37.784Z,99.90
2019-01-29T15:24:01.929Z,99.90
2019-01-29T15:26:31.091Z,99.90
2019-01-29T15:29:00.171Z,99.90
2019-01-29T15:31:29.291Z,99.90
2019-01-29T15:33:58.453Z,99.90
2019-01-29T15:36:27.591Z,99.90
2019-01-29T15:38:56.638Z,99.90
2019-01-29T15:41:25.734Z,99.90
2019-01-29T15:43:54.823Z,99.90
2019-01-29T15:46:23.825Z,99.90
2019-01-29T15:48:52.828Z,99.90
2019-01-29T15:51:21.900Z,99.90
2019-01-29T15:53:50.890Z,99.90
2019-01-29T15:56:19.978Z,99.90
2019-01-29T15:58:48.995Z,99.90
2019-01-29T16:01:18.071Z,99.90
2019-01-29T16:03:47.239Z,99.90
2019-01-29T16:06:16.156Z,99.90
2019-01-29T16:08:45.074Z,99.90
2019-01-29T16:11:14.007Z,99.90
2019-01-29T16:13:42.908Z,99.90
2019-01-29T16:16:11.996Z,99.90
2019-01-29T16:18:41.162Z,99.90
2019-01-29T16:21:10.160Z,99.90
2019-01-29T16:23:39.169Z,99.90
2019-01-29T16:26:08.718Z,99.90
2019-01-29T16:28:37.809Z,99.90
2019-01-29T16:31:06.903Z,99.90
2019-01-29T16:33:36.108Z,99.90
2019-01-29T16:36:05.278Z,99.90
2019-01-29T16:38:34.776Z,99.90
2019-01-29T16:41:03.946Z,99.90
2019-01-29T16:43:32.955Z,99.90
2019-01-29T16:46:02.091Z,99.90
2019-01-29T16:48:31.086Z,99.90
2019-01-29T16:51:00.176Z,99.90
2019-01-29T16:53:29.179Z,99.90
2019-01-29T16:55:58.197Z,99.90
2019-01-29T16:58:27.264Z,99.90
2019-01-29T17:00:56.570Z,99.90
2019-01-29T17:03:25.682Z,99.90
2019-01-29T17:05:54.682Z,99.90
2019-01-29T17:08:23.795Z,99.90
2019-01-29T17:10:52.970Z,99.90
2019-01-29T17:13:22.150Z,99.90
2019-01-29T17:15:51.295Z,99.90
2019-01-29T17:18:20.251Z,99.90
2019-01-29T17:20:49.323Z,99.90
2019-01-29T17:23:18.481Z,99.90
2019-01-29T17:25:47.522Z,99.90
2019-01-29T17:28:16.448Z,99.90
2019-01-29T17:30:45.526Z,99.90
2019-01-29T17:33:16.817Z,99.90
2019-01-29T17:35:45.912Z,99.90
2019-01-29T17:38:15.138Z,99.90
2019-01-29T17:40:45.194Z,99.90
2019-01-29T17:43:14.359Z,99.90
2019-01-29T17:45:45.148Z,99.90
2019-01-29T17:48:14.292Z,99.90
2019-01-29T17:50:44.554Z,99.90
2019-01-29T17:53:13.730Z,99.90
2019-01-29T17:55:43.661Z,99.90
2019-01-29T17:58:13.489Z,99.90
2019-01-29T18:00:46.835Z,99.90
2019-01-29T18:03:15.984Z,99.90
2019-01-29T18:05:45.282Z,99.90
2019-01-29T18:08:14.360Z,99.90
2019-01-29T18:10:43.807Z,99.90
2019-01-29T18:13:12.913Z,99.90
2019-01-29T18:15:42.035Z,99.90
2019-01-29T18:18:11.123Z,99.90
2019-01-29T18:20:40.197Z,99.90
2019-01-29T18:23:09.407Z,99.90
2019-01-29T18:25:38.542Z,99.90
2019-01-29T18:28:08.601Z,99.90
2019-01-29T18:30:37.875Z,99.90
2019-01-29T18:33:06.964Z,99.90
2019-01-29T18:35:35.980Z,99.90
2019-01-29T18:38:05.176Z,99.90
2019-01-29T18:40:37.579Z,99.90
2019-01-29T18:43:06.904Z,99.90
2019-01-29T18:45:36.066Z,99.90
2019-01-29T18:48:05.434Z,99.90
2019-01-29T18:50:34.507Z,99.90
2019-01-29T18:53:03.615Z,99.90
2019-01-29T18:55:32.614Z,99.90
2019-01-29T18:58:11.196Z,99.90
2019-01-29T19:00:32.420Z,99.90
2019-01-29T19:03:01.531Z,99.90
2019-01-29T19:05:30.605Z,99.90
2019-01-29T19:07:59.767Z,99.90
2019-01-29T19:10:28.892Z,99.90
2019-01-29T19:12:58.076Z,99.90
2019-01-29T19:15:27.460Z,99.90
2019-01-29T19:17:56.500Z,99.90
2019-01-29T19:20:26.525Z,99.90
2019-01-29T19:22:55.803Z,99.90
2019-01-29T19:25:25.118Z,99.90
2019-01-29T19:27:54.814Z,99.90
2019-01-29T19:30:26.390Z,99.90
2019-01-29T19:32:55.512Z,99.90
2019-01-29T19:35:24.579Z,99.90
2019-01-29T19:37:53.676Z,99.90
2019-01-29T19:40:23.048Z,99.90
2019-01-29T19:42:52.551Z,99.90
2019-01-29T19:45:26.971Z,99.90
2019-01-29T19:47:56.989Z,99.90
2019-01-29T19:50:26.902Z,99.90
2019-01-29T19:52:56.010Z,99.90
2019-01-29T19:55:25.915Z,99.90
2019-01-29T19:57:55.246Z,99.90
2019-01-29T20:00:35.543Z,99.90
2019-01-29T20:03:05.623Z,99.90
2019-01-29T20:05:34.698Z,99.90
2019-01-29T20:08:03.712Z,99.90
2019-01-29T20:10:32.851Z,99.90
2019-01-29T20:13:01.984Z,99.90
2019-01-29T20:15:31.171Z,99.90
2019-01-29T20:18:00.283Z,99.90
2019-01-29T20:20:32.173Z,99.90
2019-01-29T20:23:07.601Z,99.90
2019-01-29T20:25:32.134Z,99.90
2019-01-29T20:28:01.241Z,99.90
2019-01-29T20:30:32.346Z,99.90
2019-01-29T20:33:01.442Z,99.90
2019-01-29T20:35:30.536Z,99.90
2019-01-29T20:37:59.621Z,99.90
2019-01-29T20:40:28.982Z,99.90
2019-01-29T20:42:57.971Z,99.90
2019-01-29T20:45:27.346Z,99.90
2019-01-29T20:47:56.491Z,99.90
2019-01-29T20:50:27.964Z,99.90
2019-01-29T20:52:57.129Z,99.90
2019-01-29T20:55:26.203Z,99.90
2019-01-29T20:57:55.282Z,99.90
2019-01-29T21:00:27.134Z,99.90
2019-01-29T21:02:56.214Z,99.90
2019-01-29T21:05:25.334Z,99.90
2019-01-29T21:07:54.415Z,99.90
2019-01-29T21:10:23.713Z,99.90
2019-01-29T21:12:52.721Z,99.90
2019-01-29T21:15:22.936Z,99.90
2019-01-29T21:17:52.408Z,99.90
2019-01-29T21:20:23.464Z,99.90
2019-01-29T21:22:54.936Z,99.90
2019-01-29T21:25:24.040Z,99.90
2019-01-29T21:27:53.183Z,99.90
2019-01-29T21:30:44.053Z,99.90
2019-01-29T21:33:13.154Z,99.90
2019-01-29T21:35:42.157Z,99.90
2019-01-29T21:38:11.215Z,99.90
2019-01-29T21:40:40.313Z,99.90
2019-01-29T21:43:09.378Z,99.90
2019-01-29T21:45:38.505Z,99.90
2019-01-29T21:48:07.756Z,99.90
2019-01-29T21:50:37.345Z,99.90
2019-01-29T21:53:06.438Z,99.90
2019-01-29T21:55:35.531Z,99.90
2019-01-29T21:58:05.665Z,99.90
2019-01-29T22:00:37.029Z,99.90
2019-01-29T22:03:07.040Z,99.90
2019-01-29T22:05:36.181Z,99.90
2019-01-29T22:08:06.379Z,99.90
2019-01-29T22:10:35.457Z,99.90
2019-01-29T22:13:05.253Z,99.90
2019-01-29T22:15:34.380Z,99.90
2019-01-29T22:18:03.450Z,99.90
2019-01-29T22:20:32.590Z,99.90
2019-01-29T22:23:01.626Z,99.90
2019-01-29T22:25:30.702Z,99.90
2019-01-29T22:27:59.777Z,99.90
2019-01-29T22:30:33.582Z,99.90
2019-01-29T22:33:02.794Z,99.90
2019-01-29T22:35:32.062Z,99.90
2019-01-29T22:38:01.195Z,99.90
2019-01-29T22:40:30.403Z,99.90
2019-01-29T22:43:00.182Z,99.90
2019-01-29T22:45:29.318Z,99.90
2019-01-29T22:47:58.471Z,99.90
2019-01-29T22:50:32.770Z,99.90
2019-01-29T22:53:01.858Z,99.90
2019-01-29T22:55:30.917Z,99.90
2019-01-29T22:58:00.009Z,99.90
2019-01-29T23:01:00.629Z,99.90
2019-01-29T23:03:39.213Z,99.90
2019-01-29T23:06:27.406Z,99.90
2019-01-29T23:08:56.496Z,99.90
2019-01-29T23:11:25.557Z,99.90
2019-01-29T23:13:54.798Z,99.90
2019-01-29T23:16:23.861Z,99.90
2019-01-29T23:18:53.056Z,99.90
2019-01-29T23:21:22.269Z,99.90
2019-01-29T23:23:51.346Z,99.90
2019-01-29T23:26:20.420Z,99.90
2019-01-29T23:28:49.514Z,99.90
